Time;durP1;ratioP1;P1;durP2;ratioP2;P2;SDS_P1;SDS_P2;PMS_P1;PMS_P2;Temp;Humidity;BMP_temperature;BMP_pressure;BME280_temperature;BME280_humidity;BME280_pressure;Samples;Min_cycle;Max_cycle;Signal;HPM_P1;HPM_P2
2021/04/23 00:04:05;;;;;;;5.70;3.70;;;1.30;99.90;;;;;;8329438;28;20083;-64
2021/04/23 00:08:05;;;;;;;5.55;3.15;;;1.20;99.90;;;;;;8329185;28;20369;-64
2021/04/23 00:12:11;;;;;;;6.22;3.15;;;1.30;99.90;;;;;;8327726;28;20117;-64
2021/04/23 00:16:12;;;;;;;7.97;3.08;;;1.20;99.90;;;;;;8323871;28;20022;-64
2021/04/23 00:20:19;;;;;;;6.57;3.55;;;1.20;99.90;;;;;;8296024;28;20488;-64
2021/04/23 00:24:21;;;;;;;5.75;3.22;;;1.10;99.90;;;;;;8294561;28;20022;-64
2021/04/23 00:28:21;;;;;;;6.60;3.60;;;1.20;99.90;;;;;;8296043;28;20030;-64
2021/04/23 00:36:41;;;;;;;6.78;3.25;;;1.00;99.90;;;;;;8295635;28;20130;-65
2021/04/23 00:40:55;;;;;;;5.20;3.25;;;1.10;99.90;;;;;;8295475;28;20416;-64
2021/04/23 00:44:55;;;;;;;6.15;3.17;;;1.20;99.90;;;;;;8303395;28;20029;-65
2021/04/23 00:48:59;;;;;;;11.13;3.58;;;1.10;99.90;;;;;;8326605;28;20033;-65
2021/04/23 00:53:00;;;;;;;6.82;3.05;;;0.80;99.90;;;;;;8327765;28;20018;-64
2021/04/23 00:57:01;;;;;;;7.72;3.40;;;0.50;99.90;;;;;;8327806;28;20021;-64
2021/04/23 01:01:06;;;;;;;9.23;3.38;;;0.60;99.90;;;;;;8327222;28;20025;-64
2021/04/23 01:05:07;;;;;;;8.30;3.35;;;0.90;99.90;;;;;;8326878;28;20029;-64
2021/04/23 01:09:15;;;;;;;5.85;3.10;;;0.90;99.90;;;;;;8327216;28;20060;-64
2021/04/23 01:13:15;;;;;;;5.93;3.20;;;0.80;99.90;;;;;;8327274;28;20029;-64
2021/04/23 01:17:16;;;;;;;7.35;3.45;;;0.70;99.90;;;;;;8327028;28;20104;-64
2021/04/23 01:21:20;;;;;;;11.45;3.45;;;0.40;99.90;;;;;;8313633;28;20029;-64
2021/04/23 01:25:23;;;;;;;6.88;3.67;;;0.30;99.90;;;;;;8294067;28;20026;-64
2021/04/23 01:29:25;;;;;;;6.43;3.50;;;0.20;99.90;;;;;;8294076;28;20030;-64
2021/04/23 01:33:26;;;;;;;6.43;3.05;;;0.20;99.90;;;;;;8293667;28;20053;-64
2021/04/23 01:37:29;;;;;;;5.75;2.85;;;0.30;99.90;;;;;;8293968;28;20030;-64
2021/04/23 01:41:29;;;;;;;6.57;3.47;;;0.30;99.90;;;;;;8293887;28;20104;-64
2021/04/23 01:45:30;;;;;;;6.70;3.00;;;0.30;99.90;;;;;;8304935;28;20017;-63
2021/04/23 01:49:31;;;;;;;5.70;3.03;;;0.30;99.90;;;;;;8326479;28;20410;-64
2021/04/23 01:53:32;;;;;;;5.57;3.13;;;0.30;99.90;;;;;;8324316;28;20033;-63
2021/04/23 01:57:32;;;;;;;5.32;3.10;;;0.10;99.90;;;;;;8325162;28;20018;-64
2021/04/23 02:01:34;;;;;;;7.10;3.20;;;0.00;99.90;;;;;;8325951;28;20041;-64
2021/04/23 02:05:36;;;;;;;6.68;3.10;;;0.00;99.90;;;;;;8324528;28;20400;-64
2021/04/23 02:09:36;;;;;;;7.97;2.97;;;0.00;99.90;;;;;;8325775;28;20477;-64
2021/04/23 02:13:40;;;;;;;8.60;3.60;;;0.00;99.90;;;;;;8325604;28;20035;-64
2021/04/23 02:17:42;;;;;;;8.25;3.42;;;0.20;99.90;;;;;;8324420;28;20033;-64
2021/04/23 02:21:43;;;;;;;5.57;2.80;;;0.10;99.90;;;;;;8325253;28;20513;-64
2021/04/23 02:25:46;;;;;;;8.77;3.00;;;0.20;99.90;;;;;;8323333;28;20092;-64
2021/04/23 02:29:46;;;;;;;5.78;3.22;;;0.20;99.90;;;;;;8325069;28;20053;-64
2021/04/23 02:33:50;;;;;;;7.47;3.17;;;0.00;99.90;;;;;;8323513;28;20036;-64
2021/04/23 02:37:52;;;;;;;6.78;3.17;;;0.00;99.90;;;;;;8325092;28;20079;-64
2021/04/23 02:41:56;;;;;;;8.80;3.35;;;0.00;99.90;;;;;;8325257;28;20021;-64
2021/04/23 02:45:58;;;;;;;7.65;3.75;;;-0.20;99.90;;;;;;8323877;28;20033;-64
2021/04/23 02:49:59;;;;;;;8.02;3.58;;;-0.10;99.90;;;;;;8324793;28;20431;-64
2021/04/23 02:54:00;;;;;;;9.13;3.17;;;0.10;99.90;;;;;;8323680;28;20025;-64
2021/04/23 02:58:08;;;;;;;7.15;3.75;;;-0.30;99.90;;;;;;8323765;28;20059;-64
2021/04/23 03:02:09;;;;;;;5.82;3.28;;;-0.30;99.90;;;;;;8324706;28;20032;-63
2021/04/23 03:06:10;;;;;;;10.50;3.78;;;0.00;99.90;;;;;;8324956;28;20030;-63
2021/04/23 03:10:12;;;;;;;6.15;3.40;;;-0.30;99.90;;;;;;8323481;28;20075;-63
2021/04/23 03:14:12;;;;;;;5.40;3.47;;;-0.40;99.90;;;;;;8324642;28;20065;-64
2021/04/23 03:18:19;;;;;;;9.13;4.15;;;-0.40;99.90;;;;;;8324457;28;20024;-64
2021/04/23 03:22:19;;;;;;;5.82;3.30;;;-0.70;99.90;;;;;;8323545;28;20029;-64
2021/04/23 03:26:22;;;;;;;5.05;3.38;;;-0.60;99.90;;;;;;8325003;28;20049;-64
2021/04/23 03:30:32;;;;;;;6.75;3.53;;;-0.70;99.90;;;;;;8310624;28;20030;-64
2021/04/23 03:34:33;;;;;;;5.75;3.47;;;-0.50;99.90;;;;;;8297679;28;20115;-64
2021/04/23 03:38:37;;;;;;;6.13;3.28;;;-0.30;99.90;;;;;;8319725;28;20107;-64
2021/04/23 03:42:38;;;;;;;7.82;3.65;;;-0.40;99.90;;;;;;8328823;28;20033;-64
2021/04/23 03:46:39;;;;;;;7.82;3.33;;;-0.80;99.90;;;;;;8330043;28;20144;-64
2021/04/23 03:50:40;;;;;;;6.72;3.42;;;-0.70;99.90;;;;;;8329802;28;20030;-64
2021/04/23 03:54:41;;;;;;;10.80;3.80;;;-0.60;99.90;;;;;;8329731;28;20079;-64
2021/04/23 03:58:42;;;;;;;7.55;3.17;;;-0.80;99.90;;;;;;8329641;28;20091;-64
2021/04/23 04:02:43;;;;;;;9.32;4.07;;;-0.70;99.90;;;;;;8307133;28;20084;-64
2021/04/23 04:06:46;;;;;;;7.65;4.35;;;-0.70;99.90;;;;;;8296835;28;20069;-63
2021/04/23 04:10:47;;;;;;;7.63;4.00;;;-0.60;99.90;;;;;;8296528;28;20026;-64
2021/04/23 04:14:48;;;;;;;7.40;3.90;;;-0.80;99.90;;;;;;8301059;28;20369;-64
2021/04/23 04:18:48;;;;;;;6.50;3.78;;;-0.80;99.90;;;;;;8328812;28;20037;-64
2021/04/23 04:22:49;;;;;;;6.97;3.85;;;3.40;99.90;;;;;;8322956;28;20672;-64
2021/04/23 04:26:50;;;;;;;7.22;3.92;;;3.90;99.90;;;;;;8327593;28;20377;-64
2021/04/23 04:30:51;;;;;;;8.13;4.20;;;5.40;99.90;;;;;;8325871;28;20447;-64
2021/04/23 04:34:51;;;;;;;8.20;4.18;;;5.10;99.90;;;;;;8324610;28;20120;-64
2021/04/23 04:38:52;;;;;;;6.57;3.47;;;4.30;99.90;;;;;;8324401;28;20506;-64
2021/04/23 04:42:54;;;;;;;6.75;3.80;;;5.20;99.90;;;;;;8322758;28;20053;-64
2021/04/23 04:46:55;;;;;;;9.40;3.30;;;5.30;99.90;;;;;;8326263;28;20053;-64
2021/04/23 04:50:58;;;;;;;7.45;3.30;;;4.90;99.90;;;;;;8328130;28;20049;-64
2021/04/23 04:54:59;;;;;;;6.35;3.47;;;5.90;99.90;;;;;;8327918;28;20025;-64
2021/04/23 04:58:59;;;;;;;7.97;3.30;;;5.80;99.90;;;;;;8324422;28;20049;-64
2021/04/23 05:03:00;;;;;;;5.35;3.22;;;5.30;99.90;;;;;;8326144;28;20341;-64
2021/04/23 05:07:01;;;;;;;7.70;3.85;;;4.50;99.90;;;;;;8307948;28;20061;-64
2021/04/23 05:11:02;;;;;;;6.95;3.63;;;5.20;99.90;;;;;;8294947;28;20034;-65
2021/04/23 05:15:05;;;;;;;8.38;3.90;;;5.20;99.90;;;;;;8322142;28;20404;-64
2021/04/23 05:19:06;;;;;;;9.18;3.70;;;5.80;99.90;;;;;;8309724;28;20117;-64
2021/04/23 05:23:07;;;;;;;7.20;4.00;;;6.40;99.90;;;;;;8320831;28;20026;-64
2021/04/23 05:27:08;;;;;;;7.65;4.75;;;6.20;99.90;;;;;;8326776;28;20049;-64
2021/04/23 05:31:08;;;;;;;8.50;4.47;;;6.20;99.90;;;;;;8325350;28;20039;-65
2021/04/23 05:35:11;;;;;;;7.95;4.30;;;6.60;99.90;;;;;;8304061;28;20662;-64
2021/04/23 05:39:12;;;;;;;8.73;5.20;;;6.90;99.90;;;;;;8305421;28;20032;-65
2021/04/23 05:43:14;;;;;;;11.05;5.75;;;6.20;99.90;;;;;;8324386;28;20377;-64
2021/04/23 05:47:15;;;;;;;9.55;5.25;;;5.90;99.90;;;;;;8317871;28;20030;-64
2021/04/23 05:51:16;;;;;;;10.13;4.32;;;6.50;99.90;;;;;;8320494;28;20033;-62
2021/04/23 05:55:19;;;;;;;10.07;4.95;;;6.90;99.90;;;;;;8324603;28;20083;-62
2021/04/23 05:59:20;;;;;;;7.05;4.75;;;7.10;99.90;;;;;;8324100;28;20025;-62
2021/04/23 06:03:21;;;;;;;8.63;4.93;;;6.60;99.90;;;;;;8323327;28;20033;-61
2021/04/23 06:07:21;;;;;;;9.38;5.40;;;6.10;99.90;;;;;;8319538;28;20037;-61
2021/04/23 06:11:23;;;;;;;10.05;5.63;;;5.60;99.90;;;;;;8299822;28;20045;-61
2021/04/23 06:15:25;;;;;;;9.80;5.25;;;5.60;99.90;;;;;;8316115;28;20036;-61
2021/04/23 06:19:25;;;;;;;8.45;5.20;;;5.70;99.90;;;;;;8319212;28;20026;-62
2021/04/23 06:23:26;;;;;;;8.98;5.30;;;5.80;99.90;;;;;;8310126;28;20022;-62
2021/04/23 06:27:26;;;;;;;10.25;5.25;;;6.00;99.90;;;;;;8306157;28;20030;-61
2021/04/23 06:31:27;;;;;;;9.50;5.13;;;5.90;99.90;;;;;;8321714;28;20032;-60
2021/04/23 06:35:31;;;;;;;9.27;5.05;;;6.10;99.90;;;;;;8321476;28;20033;-61
2021/04/23 06:39:31;;;;;;;8.13;5.30;;;6.40;99.90;;;;;;8323242;28;20025;-62
2021/04/23 06:43:32;;;;;;;10.98;5.82;;;6.70;99.90;;;;;;8296573;28;20079;-63
2021/04/23 06:47:34;;;;;;;8.30;4.97;;;6.90;99.90;;;;;;8315103;28;20442;-63
2021/04/23 06:51:37;;;;;;;9.48;4.50;;;7.00;99.90;;;;;;8333837;28;20404;-63
2021/04/23 06:55:37;;;;;;;12.52;4.80;;;7.20;99.90;;;;;;8289127;28;20080;-67
2021/04/23 06:59:38;;;;;;;8.73;3.90;;;7.60;99.90;;;;;;8293533;28;20053;-67
2021/04/23 07:03:41;;;;;;;8.88;3.70;;;7.70;99.90;;;;;;8326996;28;20025;-63
2021/04/23 07:07:42;;;;;;;7.53;3.38;;;8.10;99.90;;;;;;8322390;28;20029;-64
2021/04/23 07:11:42;;;;;;;10.73;4.28;;;8.50;99.90;;;;;;8330644;28;20040;-64
2021/04/23 07:15:43;;;;;;;10.38;3.63;;;8.80;99.90;;;;;;8316297;28;20029;-65
2021/04/23 07:19:47;;;;;;;8.50;4.00;;;9.10;99.90;;;;;;8316658;28;20033;-64
2021/04/23 07:23:47;;;;;;;6.82;3.30;;;9.30;99.90;;;;;;8311152;28;20064;-64
2021/04/23 07:27:48;;;;;;;9.68;3.83;;;9.50;99.90;;;;;;8308053;28;20064;-64
2021/04/23 07:31:49;;;;;;;6.55;3.45;;;9.70;99.90;;;;;;8330001;28;20040;-64
2021/04/23 07:35:50;;;;;;;8.43;3.75;;;10.00;99.90;;;;;;8321123;28;20124;-64
2021/04/23 07:39:50;;;;;;;9.50;4.30;;;10.00;99.90;;;;;;8325993;28;20029;-64
2021/04/23 07:43:51;;;;;;;7.97;3.65;;;10.00;99.90;;;;;;8326576;28;20014;-64
2021/04/23 07:47:52;;;;;;;8.98;3.35;;;10.40;99.90;;;;;;8311575;28;20030;-65
2021/04/23 07:51:52;;;;;;;9.13;3.90;;;10.50;99.90;;;;;;8327793;28;20578;-65
2021/04/23 07:55:53;;;;;;;9.07;3.60;;;10.70;99.90;;;;;;8326338;28;20046;-65
2021/04/23 07:59:54;;;;;;;6.65;3.50;;;11.00;96.50;;;;;;8324374;28;20485;-65
2021/04/23 08:03:55;;;;;;;10.02;3.30;;;10.90;95.80;;;;;;8324870;28;20643;-65
2021/04/23 08:07:56;;;;;;;10.32;3.25;;;11.00;97.10;;;;;;8317839;28;20037;-65
2021/04/23 08:11:56;;;;;;;10.07;3.50;;;11.40;96.10;;;;;;8325697;28;20037;-65
2021/04/23 08:15:57;;;;;;;11.68;3.20;;;11.60;97.40;;;;;;8326398;28;20036;-65
2021/04/23 08:19:57;;;;;;;14.20;3.30;;;11.80;94.10;;;;;;8327913;28;20084;-64
2021/04/23 08:23:58;;;;;;;9.40;3.03;;;12.10;91.00;;;;;;8324185;28;20541;-65
2021/04/23 08:27:59;;;;;;;7.18;2.50;;;11.90;93.40;;;;;;8328748;28;20025;-65
2021/04/23 08:31:59;;;;;;;7.53;2.45;;;12.10;91.30;;;;;;8326123;28;20037;-64
2021/04/23 08:36:00;;;;;;;9.07;2.70;;;12.40;88.50;;;;;;8315659;28;20065;-65
2021/04/23 08:40:02;;;;;;;8.85;2.50;;;12.80;86.40;;;;;;8316366;28;20168;-64
2021/04/23 08:44:05;;;;;;;12.68;3.03;;;12.80;85.10;;;;;;8316437;28;20029;-65
2021/04/23 08:48:06;;;;;;;8.32;2.65;;;12.90;85.60;;;;;;8310107;28;20546;-65
2021/04/23 08:52:07;;;;;;;10.32;2.58;;;13.10;84.00;;;;;;8318217;28;20048;-65
2021/04/23 08:56:08;;;;;;;9.30;2.90;;;12.90;81.40;;;;;;8321442;28;20108;-64
2021/04/23 09:00:10;;;;;;;7.65;3.08;;;12.90;80.30;;;;;;8310173;28;20155;-65
2021/04/23 09:04:12;;;;;;;7.43;2.95;;;13.10;80.20;;;;;;8299845;28;20022;-64
2021/04/23 09:08:14;;;;;;;7.20;2.70;;;12.90;80.50;;;;;;8296759;28;20029;-65
2021/04/23 09:12:24;;;;;;;8.95;3.00;;;13.20;79.80;;;;;;8316109;28;20032;-64
2021/04/23 09:16:43;;;;;;;9.52;2.55;;;13.60;72.50;;;;;;8299461;28;20032;-65
2021/04/23 09:21:01;;;;;;;10.57;2.78;;;13.60;85.50;;;;;;8326002;28;20045;-65
2021/04/23 09:25:12;;;;;;;12.65;2.83;;;13.90;85.40;;;;;;8305519;28;20025;-65
2021/04/23 09:29:29;;;;;;;9.13;2.65;;;14.00;75.00;;;;;;8296048;28;20040;-65
2021/04/23 09:33:30;;;;;;;6.68;2.90;;;14.10;76.10;;;;;;8314039;28;20528;-64
2021/04/23 09:37:41;;;;;;;7.35;2.83;;;14.00;70.50;;;;;;8313801;28;20033;-64
2021/04/23 09:41:45;;;;;;;7.90;2.65;;;14.20;73.60;;;;;;8325795;28;20036;-65
2021/04/23 09:45:54;;;;;;;5.85;2.47;;;14.00;68.30;;;;;;8312378;28;20058;-64
2021/04/23 09:49:57;;;;;;;6.55;2.60;;;13.30;74.70;;;;;;8317948;28;20031;-64
2021/04/23 09:54:15;;;;;;;7.05;3.03;;;13.10;72.90;;;;;;8318132;28;20044;-65
2021/04/23 09:58:17;;;;;;;10.02;2.60;;;13.50;71.20;;;;;;8315388;28;20377;-65
2021/04/23 10:02:19;;;;;;;13.25;3.47;;;14.00;75.20;;;;;;8314384;28;20050;-65
2021/04/23 10:06:21;;;;;;;10.15;3.20;;;14.60;73.00;;;;;;8303110;28;20056;-65
2021/04/23 10:10:22;;;;;;;6.80;2.40;;;14.70;66.80;;;;;;8305122;28;20021;-65
2021/04/23 10:14:22;;;;;;;7.78;2.53;;;14.90;73.90;;;;;;8308052;28;20506;-65
2021/04/23 10:18:23;;;;;;;7.35;3.10;;;14.90;68.40;;;;;;8307956;28;20037;-65
2021/04/23 10:22:24;;;;;;;9.20;2.80;;;15.20;69.60;;;;;;8295972;28;20026;-66
2021/04/23 10:26:26;;;;;;;5.88;2.88;;;15.50;63.70;;;;;;8306014;28;20022;-65
2021/04/23 10:30:30;;;;;;;9.27;3.08;;;15.30;67.00;;;;;;8304088;28;20025;-65
2021/04/23 10:34:33;;;;;;;8.50;3.20;;;15.50;64.70;;;;;;8301760;28;20116;-65
2021/04/23 10:38:37;;;;;;;6.95;2.95;;;15.60;77.30;;;;;;8314795;28;20029;-65
2021/04/23 10:42:55;;;;;;;8.52;4.15;;;15.90;65.70;;;;;;8306174;28;20558;-65
2021/04/23 10:46:56;;;;;;;105.30;54.40;;;16.40;66.20;;;;;;8307879;28;20026;-65
2021/04/23 10:50:58;;;;;;;14.27;7.03;;;16.60;57.70;;;;;;8317962;28;20029;-65
2021/04/23 10:55:07;;;;;;;6.22;2.88;;;17.10;67.60;;;;;;8308558;28;20494;-65
2021/04/23 10:59:31;;;;;;;7.68;3.00;;;17.60;62.90;;;;;;8306881;28;20030;-65
2021/04/23 11:03:38;;;;;;;14.73;6.05;;;17.90;60.10;;;;;;8315366;28;20029;-65
2021/04/23 11:08:08;;;;;;;21.60;14.73;;;18.20;59.50;;;;;;8314165;28;20516;-65
2021/04/23 11:12:08;;;;;;;;;;;21.50;56.60;;;;;;8324754;28;20030;-66
2021/04/23 11:16:27;;;;;;;;;;;25.00;47.60;;;;;;8324042;28;20356;-66
2021/04/23 11:20:31;;;;;;;;;;;27.30;40.30;;;;;;8291612;28;19916;-66
2021/04/23 11:24:32;;;;;;;69.07;22.17;;;29.50;35.60;;;;;;8306383;28;20440;-66
2021/04/23 11:28:33;;;;;;;;;;;30.50;32.90;;;;;;8317896;28;20029;-66
2021/04/23 11:32:35;;;;;;;61.53;22.02;;;31.60;30.10;;;;;;8318027;28;20414;-66
2021/04/23 11:36:38;;;;;;;;;;;31.60;28.00;;;;;;8312376;28;20180;-66
2021/04/23 11:40:38;;;;;;;;;;;29.70;32.70;;;;;;8312313;28;20619;-65
2021/04/23 11:44:40;;;;;;;;;;;29.50;29.70;;;;;;8319377;28;20010;-66
2021/04/23 11:48:48;;;;;;;;;;;31.20;29.90;;;;;;8308431;28;20342;-66
2021/04/23 11:53:06;;;;;;;68.35;22.15;;;30.80;29.00;;;;;;8306075;28;20414;-66
2021/04/23 11:57:07;;;;;;;;;;;32.20;25.20;;;;;;8296765;28;20393;-65
2021/04/23 12:01:08;;;;;;;55.80;21.95;;;32.40;25.80;;;;;;8296408;28;20372;-66
2021/04/23 12:05:18;;;;;;;;;;;32.00;23.70;;;;;;8295944;28;20042;-65
2021/04/23 12:09:19;;;;;;;;;;;29.40;27.70;;;;;;8296866;28;19945;-66
2021/04/23 12:13:29;;;;;;;;;;;29.40;28.80;;;;;;8296620;28;19906;-66
2021/04/23 12:17:40;;;;;;;;;;;30.30;28.70;;;;;;8295186;28;19905;-66
2021/04/23 12:21:40;;;;;;;;;;;28.60;27.20;;;;;;8295703;28;19909;-65
2021/04/23 12:25:45;;;;;;;;;;;30.80;28.40;;;;;;8312483;28;19909;-65
2021/04/23 12:29:46;;;;;;;;;;;32.20;24.40;;;;;;8318360;28;19909;-66
2021/04/23 12:33:54;;;;;;;63.03;22.75;;;33.30;23.90;;;;;;8327378;28;20818;-66
2021/04/23 12:37:55;;;;;;;;;;;35.00;24.40;;;;;;8327601;28;20087;-65
2021/04/23 12:41:56;;;;;;;;;;;31.90;23.70;;;;;;8327896;28;20363;-65
2021/04/23 12:45:57;;;;;;;;;;;28.00;28.90;;;;;;8327718;28;20421;-65
2021/04/23 12:49:57;;;;;;;;;;;30.60;23.90;;;;;;8326580;28;20013;-65
2021/04/23 12:53:58;;;;;;;;;;;30.30;26.20;;;;;;8313602;28;19938;-65
2021/04/23 12:57:59;;;;;;;;;;;30.30;26.30;;;;;;8322295;28;19909;-66
2021/04/23 13:01:59;;;;;;;;;;;33.70;25.40;;;;;;8323678;28;19928;-65
2021/04/23 13:06:00;;;;;;;;;;;33.00;23.00;;;;;;8293825;28;19964;-65
2021/04/23 13:10:03;;;;;;;;;;;34.40;23.70;;;;;;8294520;28;19909;-66
2021/04/23 13:14:17;;;;;;;;;;;35.80;22.30;;;;;;8312579;28;19913;-65
2021/04/23 13:18:21;;;;;;;;;;;35.60;22.10;;;;;;8328307;28;19951;-66
2021/04/23 13:22:23;;;;;;;;;;;36.90;23.20;;;;;;8313996;28;20302;-66
2021/04/23 13:26:26;;;;;;;;;;;37.60;21.60;;;;;;8308950;28;20035;-66
2021/04/23 13:30:34;;;;;;;65.57;23.65;;;37.10;22.50;;;;;;8311214;28;19954;-66
2021/04/23 13:34:49;;;;;;;;;;;38.80;19.90;;;;;;8297494;28;20530;-66
2021/04/23 13:38:51;;;;;;;;;;;38.60;20.80;;;;;;8325000;28;19905;-66
2021/04/23 13:42:52;;;;;;;;;;;36.70;21.80;;;;;;8294479;28;19917;-66
2021/04/23 13:46:54;;;;;;;;;;;38.70;20.30;;;;;;8309691;28;20339;-66
2021/04/23 13:51:02;;;;;;;;;;;38.70;21.30;;;;;;8310537;28;19912;-66
2021/04/23 13:55:08;;;;;;;;;;;39.40;21.20;;;;;;8322481;28;19913;-66
2021/04/23 13:59:12;;;;;;;;;;;39.80;19.60;;;;;;8326006;28;19951;-66
2021/04/23 14:03:13;;;;;;;;;;;38.60;21.70;;;;;;8324273;28;19913;-67
2021/04/23 14:07:16;;;;;;;89.47;25.37;;;39.80;20.90;;;;;;8323691;28;20435;-67
2021/04/23 14:11:18;;;;;;;71.45;24.50;;;41.40;19.50;;;;;;8339208;28;20021;-66
2021/04/23 14:15:19;;;;;;;;;;;40.70;19.80;;;;;;8322807;28;20059;-65
2021/04/23 14:19:20;;;;;;;68.25;23.30;;;36.90;22.10;;;;;;8321647;28;20466;-65
2021/04/23 14:23:20;;;;;;;;;;;34.00;25.50;;;;;;8305540;28;20108;-65
2021/04/23 14:27:22;;;;;;;90.43;24.27;;;36.40;23.60;;;;;;8291531;28;20406;-66
2021/04/23 14:31:23;;;;;;;6.53;3.15;;;39.00;18.60;;;;;;8293066;28;20101;-66
2021/04/23 14:35:23;;;;;;;8.07;3.42;;;39.00;20.30;;;;;;8292122;28;20085;-66
2021/04/23 14:39:24;;;;;;;7.38;3.03;;;40.40;20.20;;;;;;8292854;28;20559;-66
2021/04/23 14:43:25;;;;;;;5.80;3.22;;;41.20;19.90;;;;;;8292678;28;20034;-66
2021/04/23 14:47:28;;;;;;;9.25;2.70;;;40.80;18.80;;;;;;8295147;28;20100;-65
2021/04/23 14:51:29;;;;;;;6.25;2.95;;;36.50;21.10;;;;;;8320778;28;20400;-65
2021/04/23 14:55:30;;;;;;;4.30;2.22;;;36.60;20.80;;;;;;8323274;28;20029;-66
2021/04/23 14:59:31;;;;;;;5.63;3.00;;;37.20;21.30;;;;;;8325537;28;20025;-66
2021/04/23 15:03:32;;;;;;;6.97;2.88;;;36.10;20.70;;;;;;8306259;28;20076;-66
2021/04/23 15:07:33;;;;;;;7.40;2.78;;;35.40;21.30;;;;;;8292840;28;20247;-66
2021/04/23 15:11:34;;;;;;;8.40;3.08;;;34.50;21.60;;;;;;8291537;28;20488;-66
2021/04/23 15:15:35;;;;;;;8.63;3.17;;;33.80;22.10;;;;;;8297542;28;20034;-66
2021/04/23 15:19:35;;;;;;;5.65;3.25;;;32.50;24.90;;;;;;8324954;28;20073;-66
2021/04/23 15:23:36;;;;;;;8.48;3.20;;;32.70;23.70;;;;;;8322421;28;20657;-66
2021/04/23 15:27:39;;;;;;;9.15;3.67;;;33.90;23.10;;;;;;8330217;28;20051;-65
2021/04/23 15:31:39;;;;;;;9.35;3.13;;;32.20;21.60;;;;;;8330865;28;20017;-66
2021/04/23 15:35:40;;;;;;;7.63;3.28;;;32.30;23.20;;;;;;8330062;28;20045;-66
2021/04/23 15:39:41;;;;;;;6.30;3.10;;;33.70;21.10;;;;;;8303693;28;20034;-65
2021/04/23 15:43:43;;;;;;;6.55;3.00;;;32.90;22.70;;;;;;8297963;28;20453;-66
2021/04/23 15:47:44;;;;;;;4.03;3.00;;;34.50;22.90;;;;;;8297599;28;20030;-65
2021/04/23 15:51:44;;;;;;;4.93;3.38;;;34.50;20.40;;;;;;8296388;28;20499;-65
2021/04/23 15:55:46;;;;;;;6.80;3.17;;;31.50;22.90;;;;;;8297252;28;20030;-64
2021/04/23 15:59:46;;;;;;;8.13;3.20;;;28.40;25.70;;;;;;8297236;28;20029;-65
2021/04/23 16:03:47;;;;;;;6.20;3.05;;;31.50;24.40;;;;;;8297075;28;20025;-65
2021/04/23 16:07:47;;;;;;;8.55;2.63;;;34.10;22.30;;;;;;8305109;28;20109;-66
2021/04/23 16:11:48;;;;;;;9.95;3.30;;;36.20;21.50;;;;;;8295430;28;20058;-65
2021/04/23 16:15:48;;;;;;;5.30;2.70;;;36.20;20.30;;;;;;8297973;28;20030;-66
2021/04/23 16:19:49;;;;;;;7.28;2.83;;;36.50;20.50;;;;;;8325862;28;20444;-65
2021/04/23 16:23:51;;;;;;;7.78;3.53;;;34.80;21.00;;;;;;8310143;28;20026;-66
2021/04/23 16:27:51;;;;;;;7.07;3.13;;;35.00;20.40;;;;;;8295563;28;20052;-66
2021/04/23 16:31:52;;;;;;;3.72;2.80;;;36.30;20.20;;;;;;8296268;28;20056;-66
2021/04/23 16:35:53;;;;;;;4.68;2.33;;;36.30;19.50;;;;;;8295039;28;20042;-65
2021/04/23 16:39:53;;;;;;;9.73;2.65;;;36.50;20.30;;;;;;8296305;28;20030;-66
2021/04/23 16:43:54;;;;;;;7.75;2.80;;;36.60;21.30;;;;;;8296241;28;20025;-66
2021/04/23 16:47:54;;;;;;;7.47;2.78;;;36.40;20.80;;;;;;8302044;28;20060;-65
2021/04/23 16:51:55;;;;;;;9.30;2.90;;;35.30;22.20;;;;;;8302421;28;20030;-65
2021/04/23 16:55:55;;;;;;;5.45;2.50;;;34.60;22.60;;;;;;8295613;28;20040;-65
2021/04/23 16:59:56;;;;;;;6.93;2.72;;;34.50;25.00;;;;;;8295401;28;20480;-65
2021/04/23 17:03:58;;;;;;;8.15;3.20;;;34.60;24.30;;;;;;8295323;28;20540;-65
2021/04/23 17:07:58;;;;;;;8.52;2.88;;;34.00;25.20;;;;;;8293508;28;20512;-65
2021/04/23 17:11:59;;;;;;;8.07;3.42;;;32.90;25.40;;;;;;8300600;28;20029;-65
2021/04/23 17:16:00;;;;;;;12.75;3.30;;;30.10;26.90;;;;;;8319163;28;20029;-65
2021/04/23 17:20:01;;;;;;;6.07;3.00;;;27.50;27.70;;;;;;8315001;28;20036;-65
2021/04/23 17:24:02;;;;;;;6.90;3.28;;;25.20;29.90;;;;;;8318069;28;20029;-65
2021/04/23 17:28:03;;;;;;;7.18;3.17;;;23.40;29.60;;;;;;8327310;28;20392;-64
2021/04/23 17:32:04;;;;;;;4.97;3.00;;;21.60;35.20;;;;;;8326956;28;20037;-64
2021/04/23 17:36:05;;;;;;;5.90;3.38;;;19.80;38.60;;;;;;8318635;28;20033;-64
2021/04/23 17:40:07;;;;;;;6.78;3.63;;;18.20;41.30;;;;;;8297877;28;20032;-64
2021/04/23 17:44:07;;;;;;;7.38;3.35;;;17.30;42.50;;;;;;8312179;28;20112;-64
2021/04/23 17:48:08;;;;;;;6.32;3.58;;;16.60;44.40;;;;;;8321493;28;20427;-64
2021/04/23 17:52:09;;;;;;;6.60;3.05;;;16.00;46.40;;;;;;8319873;28;20029;-64
2021/04/23 17:56:15;;;;;;;8.10;2.85;;;15.30;47.50;;;;;;8305783;28;20060;-64
2021/04/23 18:00:19;;;;;;;7.88;3.00;;;14.70;48.20;;;;;;8307119;28;21442;-64
2021/04/23 18:04:20;;;;;;;6.05;2.50;;;14.30;48.10;;;;;;8305740;28;20484;-64
2021/04/23 18:08:20;;;;;;;8.85;3.03;;;14.00;48.90;;;;;;8309257;28;20030;-64
2021/04/23 18:12:21;;;;;;;7.22;3.10;;;13.80;49.10;;;;;;8320301;28;20037;-63
2021/04/23 18:16:21;;;;;;;7.53;2.92;;;13.60;49.50;;;;;;8307359;28;20036;-63
2021/04/23 18:20:23;;;;;;;5.82;2.83;;;13.30;50.00;;;;;;8288061;28;20060;-63
2021/04/23 18:24:24;;;;;;;5.22;2.50;;;13.00;50.70;;;;;;8288352;28;20459;-64
2021/04/23 18:28:25;;;;;;;17.80;3.45;;;12.80;52.20;;;;;;8289225;28;20022;-63
2021/04/23 18:32:26;;;;;;;11.15;3.03;;;12.90;51.70;;;;;;8289060;28;20072;-63
2021/04/23 18:36:26;;;;;;;15.70;2.78;;;12.50;52.30;;;;;;8289354;28;20038;-64
2021/04/23 18:40:27;;;;;;;27.85;3.95;;;12.10;55.20;;;;;;8313724;28;20041;-63
2021/04/23 18:44:28;;;;;;;45.60;5.05;;;12.10;53.90;;;;;;8321689;28;20128;-63
2021/04/23 18:48:28;;;;;;;11.35;3.22;;;11.80;56.00;;;;;;8321870;28;20037;-64
2021/04/23 18:52:29;;;;;;;14.10;3.25;;;11.40;56.30;;;;;;8321488;28;20563;-64
2021/04/23 18:56:29;;;;;;;10.10;3.10;;;11.30;56.90;;;;;;8321451;28;20029;-64
2021/04/23 19:00:30;;;;;;;9.82;2.78;;;11.10;58.80;;;;;;8325290;28;20033;-64
2021/04/23 19:04:30;;;;;;;10.98;3.70;;;11.00;60.50;;;;;;8311580;28;20029;-63
2021/04/23 19:08:31;;;;;;;8.82;4.15;;;10.90;60.10;;;;;;8295506;28;20556;-63
2021/04/23 19:12:31;;;;;;;24.52;4.72;;;10.70;60.30;;;;;;8294885;28;20034;-64
2021/04/23 19:16:33;;;;;;;21.23;5.30;;;10.30;63.00;;;;;;8295486;28;20080;-63
2021/04/23 19:20:34;;;;;;;19.33;5.70;;;10.00;65.20;;;;;;8295077;28;20505;-64
2021/04/23 19:24:36;;;;;;;11.15;4.65;;;9.90;64.00;;;;;;8300177;28;20021;-63
2021/04/23 19:28:37;;;;;;;18.13;5.35;;;9.80;63.80;;;;;;8297694;28;20523;-64
2021/04/23 19:32:38;;;;;;;13.98;4.20;;;9.70;66.30;;;;;;8294445;28;20113;-63
2021/04/23 19:36:39;;;;;;;13.90;6.03;;;9.70;66.30;;;;;;8294281;28;20045;-63
2021/04/23 19:40:39;;;;;;;10.38;4.10;;;9.30;69.00;;;;;;8320561;28;20037;-63
2021/04/23 19:44:40;;;;;;;14.20;5.55;;;9.10;71.10;;;;;;8315353;28;20029;-65
2021/04/23 19:48:41;;;;;;;13.93;5.97;;;8.90;71.00;;;;;;8303058;28;20384;-66
2021/04/23 19:52:42;;;;;;;16.88;6.18;;;8.50;73.10;;;;;;8308745;28;20030;-66
2021/04/23 19:56:42;;;;;;;14.93;5.50;;;8.40;75.40;;;;;;8309026;28;20041;-66
2021/04/23 20:00:43;;;;;;;11.52;5.18;;;8.30;77.10;;;;;;8308858;28;20427;-66
2021/04/23 20:04:44;;;;;;;14.50;4.72;;;8.20;76.00;;;;;;8297968;28;20045;-66
2021/04/23 20:08:45;;;;;;;16.75;6.53;;;8.00;79.00;;;;;;8319225;28;20101;-66
2021/04/23 20:12:46;;;;;;;14.10;5.32;;;8.00;81.70;;;;;;8325766;28;20484;-66
2021/04/23 20:16:46;;;;;;;11.18;6.07;;;7.70;81.40;;;;;;8326328;28;20144;-65
2021/04/23 20:20:47;;;;;;;12.82;5.55;;;7.90;80.10;;;;;;8324406;28;20025;-65
2021/04/23 20:24:47;;;;;;;12.18;4.75;;;7.60;81.70;;;;;;8300770;28;20033;-65
2021/04/23 20:28:48;;;;;;;13.38;5.65;;;7.50;83.40;;;;;;8296813;28;20021;-66
2021/04/23 20:32:49;;;;;;;9.93;5.38;;;7.50;84.20;;;;;;8296231;28;20033;-65
2021/04/23 20:36:49;;;;;;;11.30;5.80;;;7.50;84.20;;;;;;8296376;28;20038;-65
2021/04/23 20:40:50;;;;;;;9.88;4.93;;;7.20;85.90;;;;;;8296293;28;20049;-65
2021/04/23 20:44:52;;;;;;;9.48;4.18;;;7.00;88.00;;;;;;8295913;28;20037;-65
2021/04/23 20:48:53;;;;;;;15.48;4.63;;;7.00;90.30;;;;;;8295079;28;20022;-65
2021/04/23 20:52:53;;;;;;;10.85;4.95;;;7.00;91.50;;;;;;8295447;28;20033;-65
2021/04/23 20:56:54;;;;;;;12.95;5.40;;;7.00;91.50;;;;;;8295925;28;20026;-65
2021/04/23 21:00:54;;;;;;;14.43;5.40;;;6.60;93.10;;;;;;8295901;28;20452;-65
2021/04/23 21:04:55;;;;;;;12.23;5.25;;;6.40;95.10;;;;;;8295548;28;20018;-65
2021/04/23 21:08:55;;;;;;;14.88;4.82;;;6.20;97.50;;;;;;8294674;28;20026;-65
2021/04/23 21:12:57;;;;;;;13.68;4.80;;;6.20;97.50;;;;;;8295066;28;20080;-65
2021/04/23 21:16:57;;;;;;;13.27;5.10;;;6.00;99.40;;;;;;8295097;28;20037;-65
2021/04/23 21:20:57;;;;;;;10.13;5.60;;;5.90;98.90;;;;;;8293380;28;20026;-65
2021/04/23 21:24:58;;;;;;;11.95;4.80;;;5.80;99.90;;;;;;8294351;28;20058;-65